sensor_id;sensor_type;location;lat;lon;timestamp;pressure;altitude;pressure_sealevel;temperature;humidity
42587;BME280;28216;53.362;-6.288;2023-04-29T00:02:14;101498.88;;;11.93;100.00
42587;BME280;28216;53.362;-6.288;2023-04-29T00:04:39;101493.78;;;11.92;100.00
42587;BME280;28216;53.362;-6.288;2023-04-29T00:07:05;101501.53;;;11.84;100.00
42587;BME280;28216;53.362;-6.288;2023-04-29T00:09:32;101499.22;;;11.81;100.00
42587;BME280;28216;53.362;-6.288;2023-04-29T00:11:58;101496.72;;;11.79;100.00
42587;BME280;28216;53.362;-6.288;2023-04-29T00:14:25;101506.41;;;11.78;100.00
42587;BME280;28216;53.362;-6.288;2023-04-29T00:16:51;101501.44;;;11.75;100.00
42587;BME280;28216;53.362;-6.288;2023-04-29T00:19:17;101505.84;;;11.75;100.00
42587;BME280;28216;53.362;-6.288;2023-04-29T00:21:42;101506.84;;;11.74;100.00
42587;BME280;28216;53.362;-6.288;2023-04-29T00:24:08;101501.72;;;11.72;100.00
42587;BME280;28216;53.362;-6.288;2023-04-29T00:26:33;101503.53;;;11.72;100.00
42587;BME280;28216;53.362;-6.288;2023-04-29T00:29:02;101497.59;;;11.70;100.00
42587;BME280;28216;53.362;-6.288;2023-04-29T00:31:27;101503.97;;;11.67;100.00
42587;BME280;28216;53.362;-6.288;2023-04-29T00:33:55;101507.44;;;11.68;100.00
42587;BME280;28216;53.362;-6.288;2023-04-29T00:36:21;101508.41;;;11.67;100.00
42587;BME280;28216;53.362;-6.288;2023-04-29T00:38:47;101510.34;;;11.65;100.00
42587;BME280;28216;53.362;-6.288;2023-04-29T00:41:12;101506.22;;;11.62;100.00
42587;BME280;28216;53.362;-6.288;2023-04-29T00:43:38;101515.91;;;11.62;100.00
42587;BME280;28216;53.362;-6.288;2023-04-29T00:46:03;101516.19;;;11.59;100.00
42587;BME280;28216;53.362;-6.288;2023-04-29T00:48:29;101505.16;;;11.55;100.00
42587;BME280;28216;53.362;-6.288;2023-04-29T00:50:54;101508.47;;;11.57;100.00
42587;BME280;28216;53.362;-6.288;2023-04-29T00:53:24;101503.78;;;11.51;100.00
42587;BME280;28216;53.362;-6.288;2023-04-29T00:55:50;101497.88;;;11.49;100.00
42587;BME280;28216;53.362;-6.288;2023-04-29T00:58:19;101507.41;;;11.50;100.00
42587;BME280;28216;53.362;-6.288;2023-04-29T01:00:48;101509.19;;;11.50;100.00
42587;BME280;28216;53.362;-6.288;2023-04-29T01:03:14;101503.56;;;11.44;100.00
42587;BME280;28216;53.362;-6.288;2023-04-29T01:05:40;101504.53;;;11.43;100.00
42587;BME280;28216;53.362;-6.288;2023-04-29T01:08:12;101503.72;;;11.43;100.00
42587;BME280;28216;53.362;-6.288;2023-04-29T01:10:46;101508.28;;;11.41;100.00
42587;BME280;28216;53.362;-6.288;2023-04-29T01:13:17;101512.84;;;11.39;100.00
42587;BME280;28216;53.362;-6.288;2023-04-29T01:16:03;101513.53;;;11.41;100.00
42587;BME280;28216;53.362;-6.288;2023-04-29T01:18:36;101500.16;;;11.34;100.00
42587;BME280;28216;53.362;-6.288;2023-04-29T01:21:03;101509.16;;;11.32;100.00
42587;BME280;28216;53.362;-6.288;2023-04-29T01:23:29;101500.16;;;11.34;100.00
42587;BME280;28216;53.362;-6.288;2023-04-29T01:25:56;101498.38;;;11.35;100.00
42587;BME280;28216;53.362;-6.288;2023-04-29T01:31:27;101503.06;;;11.31;100.00
42587;BME280;28216;53.362;-6.288;2023-04-29T01:34:18;101508.31;;;11.31;100.00
42587;BME280;28216;53.362;-6.288;2023-04-29T01:36:53;101505.47;;;11.25;100.00
42587;BME280;28216;53.362;-6.288;2023-04-29T01:42:29;101501.47;;;11.21;100.00
42587;BME280;28216;53.362;-6.288;2023-04-29T01:45:00;101503.41;;;11.19;100.00
42587;BME280;28216;53.362;-6.288;2023-04-29T01:51:10;101510.03;;;11.13;100.00
42587;BME280;28216;53.362;-6.288;2023-04-29T01:53:35;101511.44;;;11.07;100.00
42587;BME280;28216;53.362;-6.288;2023-04-29T01:56:01;101511.72;;;11.04;100.00
42587;BME280;28216;53.362;-6.288;2023-04-29T01:58:26;101513.38;;;11.05;100.00
42587;BME280;28216;53.362;-6.288;2023-04-29T02:00:53;101506.63;;;11.03;100.00
42587;BME280;28216;53.362;-6.288;2023-04-29T02:03:19;101514.34;;;11.04;100.00
42587;BME280;28216;53.362;-6.288;2023-04-29T02:05:44;101509.09;;;11.04;100.00
42587;BME280;28216;53.362;-6.288;2023-04-29T02:08:10;101515.03;;;11.06;100.00
42587;BME280;28216;53.362;-6.288;2023-04-29T02:10:36;101513.09;;;11.08;100.00
42587;BME280;28216;53.362;-6.288;2023-04-29T02:13:04;101517.09;;;11.12;100.00
42587;BME280;28216;53.362;-6.288;2023-04-29T02:15:29;101513.09;;;11.08;100.00
42587;BME280;28216;53.362;-6.288;2023-04-29T02:17:55;101516.53;;;11.09;100.00
42587;BME280;28216;53.362;-6.288;2023-04-29T02:20:20;101514.75;;;11.09;100.00
42587;BME280;28216;53.362;-6.288;2023-04-29T02:22:48;101509.78;;;11.06;100.00
42587;BME280;28216;53.362;-6.288;2023-04-29T02:25:16;101513.09;;;11.08;100.00
42587;BME280;28216;53.362;-6.288;2023-04-29T02:27:41;101510.63;;;11.07;100.00
42587;BME280;28216;53.362;-6.288;2023-04-29T02:30:07;101507.31;;;11.05;100.00
42587;BME280;28216;53.362;-6.288;2023-04-29T02:32:35;101510.22;;;11.02;100.00
42587;BME280;28216;53.362;-6.288;2023-04-29T02:35:03;101513.97;;;10.99;100.00
42587;BME280;28216;53.362;-6.288;2023-04-29T02:37:29;101504.88;;;10.94;100.00
42587;BME280;28216;53.362;-6.288;2023-04-29T02:39:54;101509.44;;;10.92;100.00
42587;BME280;28216;53.362;-6.288;2023-04-29T02:42:20;101517.44;;;10.90;100.00
42587;BME280;28216;53.362;-6.288;2023-04-29T02:44:47;101518.69;;;10.86;100.00
42587;BME280;28216;53.362;-6.288;2023-04-29T02:47:13;101520.50;;;10.86;100.00
42587;BME280;28216;53.362;-6.288;2023-04-29T02:49:39;101521.31;;;10.86;100.00
42587;BME280;28216;53.362;-6.288;2023-04-29T02:52:05;101523.81;;;10.88;100.00
42587;BME280;28216;53.362;-6.288;2023-04-29T02:54:30;101524.78;;;10.87;100.00
42587;BME280;28216;53.362;-6.288;2023-04-29T02:56:56;101524.91;;;10.85;100.00
42587;BME280;28216;53.362;-6.288;2023-04-29T02:59:22;101524.91;;;10.85;100.00
42587;BME280;28216;53.362;-6.288;2023-04-29T03:01:48;101517.47;;;10.80;100.00
42587;BME280;28216;53.362;-6.288;2023-04-29T03:04:14;101520.25;;;10.79;100.00
42587;BME280;28216;53.362;-6.288;2023-04-29T03:06:42;101523.41;;;10.82;100.00
42587;BME280;28216;53.362;-6.288;2023-04-29T03:09:07;101527.13;;;10.80;100.00
42587;BME280;28216;53.362;-6.288;2023-04-29T03:11:33;101527.53;;;10.85;100.00
42587;BME280;28216;53.362;-6.288;2023-04-29T03:13:58;101525.88;;;10.84;100.00
42587;BME280;28216;53.362;-6.288;2023-04-29T03:16:25;101536.91;;;10.88;100.00
42587;BME280;28216;53.362;-6.288;2023-04-29T03:18:53;101534.16;;;10.89;100.00
42587;BME280;28216;53.362;-6.288;2023-04-29T03:21:18;101530.41;;;10.92;100.00
42587;BME280;28216;53.362;-6.288;2023-04-29T03:23:44;101547.66;;;10.94;100.00
42587;BME280;28216;53.362;-6.288;2023-04-29T03:26:09;101549.03;;;10.98;100.00
42587;BME280;28216;53.362;-6.288;2023-04-29T03:28:35;101553.47;;;10.98;100.00
42587;BME280;28216;53.362;-6.288;2023-04-29T03:31:01;101548.59;;;11.03;100.00
42587;BME280;28216;53.362;-6.288;2023-04-29T03:33:27;101545.84;;;11.04;100.00
42587;BME280;28216;53.362;-6.288;2023-04-29T03:35:52;101532.44;;;11.07;100.00
42587;BME280;28216;53.362;-6.288;2023-04-29T03:38:18;101536.13;;;11.14;100.00
42587;BME280;28216;53.362;-6.288;2023-04-29T03:40:44;101531.47;;;11.18;100.00
42587;BME280;28216;53.362;-6.288;2023-04-29T03:43:10;101542.34;;;11.23;100.00
42587;BME280;28216;53.362;-6.288;2023-04-29T03:45:36;101540.56;;;11.24;100.00
42587;BME280;28216;53.362;-6.288;2023-04-29T03:48:02;101539.59;;;11.25;100.00
42587;BME280;28216;53.362;-6.288;2023-04-29T03:50:28;101535.56;;;11.30;100.00
42587;BME280;28216;53.362;-6.288;2023-04-29T03:52:54;101538.41;;;11.37;100.00
42587;BME280;28216;53.362;-6.288;2023-04-29T03:55:20;101533.31;;;11.35;100.00
42587;BME280;28216;53.362;-6.288;2023-04-29T03:57:50;101534.38;;;11.42;100.00
42587;BME280;28216;53.362;-6.288;2023-04-29T04:00:16;101532.44;;;11.44;100.00
42587;BME280;28216;53.362;-6.288;2023-04-29T04:02:41;101534.78;;;11.48;100.00
42587;BME280;28216;53.362;-6.288;2023-04-29T04:05:07;101537.25;;;11.49;100.00
42587;BME280;28216;53.362;-6.288;2023-04-29T04:07:33;101534.34;;;11.52;100.00
42587;BME280;28216;53.362;-6.288;2023-04-29T04:09:58;101535.84;;;11.55;100.00
42587;BME280;28216;53.362;-6.288;2023-04-29T04:12:24;101539.69;;;11.60;100.00
42587;BME280;28216;53.362;-6.288;2023-04-29T04:14:52;101537.88;;;11.61;100.00
42587;BME280;28216;53.362;-6.288;2023-04-29T04:17:18;101537.59;;;11.64;100.00
42587;BME280;28216;53.362;-6.288;2023-04-29T04:19:43;101544.06;;;11.69;100.00
42587;BME280;28216;53.362;-6.288;2023-04-29T04:22:09;101538.34;;;11.74;100.00
42587;BME280;28216;53.362;-6.288;2023-04-29T04:24:36;101543.59;;;11.74;100.00
42587;BME280;28216;53.362;-6.288;2023-04-29T04:27:03;101537.69;;;11.72;100.00
42587;BME280;28216;53.362;-6.288;2023-04-29T04:29:29;101544.28;;;11.76;100.00
42587;BME280;28216;53.362;-6.288;2023-04-29T04:31:57;101539.19;;;11.74;100.00
42587;BME280;28216;53.362;-6.288;2023-04-29T04:34:24;101533.66;;;11.77;100.00
42587;BME280;28216;53.362;-6.288;2023-04-29T04:39:55;101536.28;;;11.77;100.00
42587;BME280;28216;53.362;-6.288;2023-04-29T04:42:21;101539.75;;;11.78;100.00
42587;BME280;28216;53.362;-6.288;2023-04-29T04:44:47;101536.97;;;11.80;100.00
42587;BME280;28216;53.362;-6.288;2023-04-29T04:47:13;101537.66;;;11.82;100.00
42587;BME280;28216;53.362;-6.288;2023-04-29T04:49:59;101535.84;;;11.82;100.00
42587;BME280;28216;53.362;-6.288;2023-04-29T04:52:25;101537.66;;;11.82;100.00
42587;BME280;28216;53.362;-6.288;2023-04-29T04:54:51;101543.59;;;11.84;100.00
42587;BME280;28216;53.362;-6.288;2023-04-29T04:57:16;101537.66;;;11.82;100.00
42587;BME280;28216;53.362;-6.288;2023-04-29T04:59:44;101537.66;;;11.82;100.00
42587;BME280;28216;53.362;-6.288;2023-04-29T05:02:28;101547.34;;;11.81;100.00
42587;BME280;28216;53.362;-6.288;2023-04-29T05:04:54;101546.50;;;11.81;100.00
42587;BME280;28216;53.362;-6.288;2023-04-29T05:07:20;101545.53;;;11.82;100.00
42587;BME280;28216;53.362;-6.288;2023-04-29T05:09:48;101546.22;;;11.84;100.00
42587;BME280;28216;53.362;-6.288;2023-04-29T05:12:13;101553.66;;;11.88;100.00
42587;BME280;28216;53.362;-6.288;2023-04-29T05:14:43;101554.22;;;11.92;100.00
42587;BME280;28216;53.362;-6.288;2023-04-29T05:17:09;101548.66;;;11.95;100.00
42587;BME280;28216;53.362;-6.288;2023-04-29T05:19:35;101549.19;;;11.98;100.00
42587;BME280;28216;53.362;-6.288;2023-04-29T05:22:00;101554.66;;;12.05;100.00
42587;BME280;28216;53.362;-6.288;2023-04-29T05:24:29;101556.16;;;12.07;100.00
42587;BME280;28216;53.362;-6.288;2023-04-29T05:26:54;101561.44;;;12.07;100.00
42587;BME280;28216;53.362;-6.288;2023-04-29T05:29:22;101559.31;;;12.11;100.00
42587;BME280;28216;53.362;-6.288;2023-04-29T05:31:49;101567.44;;;12.18;100.00
42587;BME280;28216;53.362;-6.288;2023-04-29T05:34:17;101576.53;;;12.23;100.00
42587;BME280;28216;53.362;-6.288;2023-04-29T05:36:45;101574.94;;;12.30;100.00
42587;BME280;28216;53.362;-6.288;2023-04-29T05:39:10;101578.94;;;12.34;100.00
42587;BME280;28216;53.362;-6.288;2023-04-29T05:41:36;101588.31;;;12.37;100.00
42587;BME280;28216;53.362;-6.288;2023-04-29T05:44:02;101576.31;;;12.34;100.00
42587;BME280;28216;53.362;-6.288;2023-04-29T05:53:10;101579.09;;;12.33;100.00
42587;BME280;28216;53.362;-6.288;2023-04-29T05:55:36;101572.63;;;12.27;100.00
42587;BME280;28216;53.362;-6.288;2023-04-29T05:58:27;101586.16;;;12.32;100.00
42587;BME280;28216;53.362;-6.288;2023-04-29T06:04:14;101581.25;;;12.37;100.00
42587;BME280;28216;53.362;-6.288;2023-04-29T06:10:06;101576.91;;;12.46;100.00
42587;BME280;28216;53.362;-6.288;2023-04-29T06:12:32;101578.41;;;12.49;100.00
42587;BME280;28216;53.362;-6.288;2023-04-29T06:14:57;101582.69;;;12.50;100.00
42587;BME280;28216;53.362;-6.288;2023-04-29T06:17:23;101582.53;;;12.51;100.00
42587;BME280;28216;53.362;-6.288;2023-04-29T06:19:49;101588.47;;;12.53;100.00
42587;BME280;28216;53.362;-6.288;2023-04-29T06:22:14;101590.28;;;12.53;100.00
42587;BME280;28216;53.362;-6.288;2023-04-29T06:24:40;101600.50;;;12.56;100.00
42587;BME280;28216;53.362;-6.288;2023-04-29T06:27:05;101597.84;;;12.56;100.00
42587;BME280;28216;53.362;-6.288;2023-04-29T06:29:31;101602.00;;;12.58;100.00
42587;BME280;28216;53.362;-6.288;2023-04-29T06:31:58;101602.81;;;12.59;100.00
42587;BME280;28216;53.362;-6.288;2023-04-29T06:34:31;101600.19;;;12.59;100.00
42587;BME280;28216;53.362;-6.288;2023-04-29T06:36:57;101607.66;;;12.63;100.00
42587;BME280;28216;53.362;-6.288;2023-04-29T06:39:34;101610.81;;;12.67;100.00
42587;BME280;28216;53.362;-6.288;2023-04-29T06:42:07;101616.44;;;12.72;100.00
42587;BME280;28216;53.362;-6.288;2023-04-29T06:44:33;101624.09;;;12.83;100.00
42587;BME280;28216;53.362;-6.288;2023-04-29T06:46:59;101618.22;;;12.89;100.00
42587;BME280;28216;53.362;-6.288;2023-04-29T06:49:27;101627.81;;;12.98;100.00
42587;BME280;28216;53.362;-6.288;2023-04-29T06:51:53;101629.53;;;13.08;100.00
42587;BME280;28216;53.362;-6.288;2023-04-29T06:54:20;101624.56;;;13.22;100.00
42587;BME280;28216;53.362;-6.288;2023-04-29T06:56:46;101626.09;;;13.33;100.00
42587;BME280;28216;53.362;-6.288;2023-04-29T06:59:12;101628.34;;;13.46;100.00
42587;BME280;28216;53.362;-6.288;2023-04-29T07:01:39;101629.19;;;13.54;100.00
42587;BME280;28216;53.362;-6.288;2023-04-29T07:04:05;101633.84;;;13.60;100.00
42587;BME280;28216;53.362;-6.288;2023-04-29T07:06:31;101634.06;;;13.75;100.00
42587;BME280;28216;53.362;-6.288;2023-04-29T07:08:56;101631.63;;;13.82;100.00
42587;BME280;28216;53.362;-6.288;2023-04-29T07:11:22;101635.94;;;13.91;100.00
42587;BME280;28216;53.362;-6.288;2023-04-29T07:13:52;101635.63;;;13.94;100.00
42587;BME280;28216;53.362;-6.288;2023-04-29T07:16:20;101637.47;;;14.02;100.00
42587;BME280;28216;53.362;-6.288;2023-04-29T07:18:49;101637.13;;;14.05;100.00
42587;BME280;28216;53.362;-6.288;2023-04-29T07:21:14;101641.09;;;14.09;100.00
42587;BME280;28216;53.362;-6.288;2023-04-29T07:23:40;101644.41;;;14.11;100.00
42587;BME280;28216;53.362;-6.288;2023-04-29T07:26:12;101648.19;;;14.08;100.00
42587;BME280;28216;53.362;-6.288;2023-04-29T07:28:41;101648.84;;;14.10;100.00
42587;BME280;28216;53.362;-6.288;2023-04-29T07:31:08;101645.56;;;14.08;100.00
42587;BME280;28216;53.362;-6.288;2023-04-29T07:33:34;101645.22;;;14.03;100.00
42587;BME280;28216;53.362;-6.288;2023-04-29T07:36:02;101642.22;;;13.98;100.00
42587;BME280;28216;53.362;-6.288;2023-04-29T07:38:31;101655.09;;;14.01;100.00
42587;BME280;28216;53.362;-6.288;2023-04-29T07:41:00;101648.31;;;13.98;100.00
42587;BME280;28216;53.362;-6.288;2023-04-29T07:43:25;101651.28;;;13.95;100.00
42587;BME280;28216;53.362;-6.288;2023-04-29T07:46:01;101649.47;;;13.96;100.00
42587;BME280;28216;53.362;-6.288;2023-04-29T07:48:27;101658.22;;;13.96;100.00
42587;BME280;28216;53.362;-6.288;2023-04-29T07:50:55;101660.53;;;13.99;100.00
42587;BME280;28216;53.362;-6.288;2023-04-29T07:53:21;101653.28;;;14.02;100.00
42587;BME280;28216;53.362;-6.288;2023-04-29T07:55:46;101655.44;;;14.06;100.00
42587;BME280;28216;53.362;-6.288;2023-04-29T07:58:12;101658.97;;;14.15;100.00
42587;BME280;28216;53.362;-6.288;2023-04-29T08:00:38;101663.44;;;14.22;100.00
42587;BME280;28216;53.362;-6.288;2023-04-29T08:03:03;101664.94;;;14.33;100.00
42587;BME280;28216;53.362;-6.288;2023-04-29T08:05:36;101655.59;;;14.47;100.00
42587;BME280;28216;53.362;-6.288;2023-04-29T08:08:04;101658.25;;;14.55;100.00
42587;BME280;28216;53.362;-6.288;2023-04-29T08:10:30;101654.44;;;14.66;100.00
42587;BME280;28216;53.362;-6.288;2023-04-29T08:12:56;101655.78;;;14.78;100.00
42587;BME280;28216;53.362;-6.288;2023-04-29T08:15:22;101651.16;;;14.80;100.00
42587;BME280;28216;53.362;-6.288;2023-04-29T08:17:47;101653.97;;;14.78;100.00
42587;BME280;28216;53.362;-6.288;2023-04-29T08:20:13;101654.63;;;14.80;100.00
42587;BME280;28216;53.362;-6.288;2023-04-29T08:22:41;101659.41;;;14.85;100.00
42587;BME280;28216;53.362;-6.288;2023-04-29T08:25:10;101652.19;;;14.87;100.00
42587;BME280;28216;53.362;-6.288;2023-04-29T08:27:36;101659.44;;;14.93;100.00
42587;BME280;28216;53.362;-6.288;2023-04-29T08:30:01;101656.31;;;14.98;100.00
42587;BME280;28216;53.362;-6.288;2023-04-29T08:32:30;101662.22;;;15.08;100.00
42587;BME280;28216;53.362;-6.288;2023-04-29T08:34:58;101662.22;;;15.16;100.00
42587;BME280;28216;53.362;-6.288;2023-04-29T08:37:24;101659.56;;;15.24;100.00
42587;BME280;28216;53.362;-6.288;2023-04-29T08:39:49;101661.72;;;15.29;100.00
42587;BME280;28216;53.362;-6.288;2023-04-29T08:42:18;101662.50;;;15.37;100.00
42587;BME280;28216;53.362;-6.288;2023-04-29T08:44:45;101661.53;;;15.38;100.00
42587;BME280;28216;53.362;-6.288;2023-04-29T08:47:11;101661.34;;;15.40;100.00
42587;BME280;28216;53.362;-6.288;2023-04-29T08:49:39;101659.38;;;15.42;100.00
42587;BME280;28216;53.362;-6.288;2023-04-29T08:52:05;101668.94;;;15.43;100.00
42587;BME280;28216;53.362;-6.288;2023-04-29T08:54:31;101662.84;;;15.42;100.00
42587;BME280;28216;53.362;-6.288;2023-04-29T08:56:57;101668.13;;;15.42;100.00
42587;BME280;28216;53.362;-6.288;2023-04-29T08:59:24;101663.66;;;15.43;100.00
42587;BME280;28216;53.362;-6.288;2023-04-29T09:01:53;101655.91;;;15.41;100.00
42587;BME280;28216;53.362;-6.288;2023-04-29T09:04:59;101656.56;;;15.43;100.00
42587;BME280;28216;53.362;-6.288;2023-04-29T09:07:50;101656.03;;;15.56;100.00
42587;BME280;28216;53.362;-6.288;2023-04-29T09:10:16;101657.84;;;15.55;100.00
42587;BME280;28216;53.362;-6.288;2023-04-29T09:12:49;101670.91;;;15.65;100.00
42587;BME280;28216;53.362;-6.288;2023-04-29T09:15:15;101667.09;;;15.76;100.00
42587;BME280;28216;53.362;-6.288;2023-04-29T09:17:48;101677.13;;;15.88;100.00
42587;BME280;28216;53.362;-6.288;2023-04-29T09:22:51;101675.81;;;16.15;100.00
42587;BME280;28216;53.362;-6.288;2023-04-29T09:25:17;101673.25;;;16.30;100.00
42587;BME280;28216;53.362;-6.288;2023-04-29T09:27:43;101668.78;;;16.39;100.00
42587;BME280;28216;53.362;-6.288;2023-04-29T09:30:09;101670.97;;;16.58;100.00
42587;BME280;28216;53.362;-6.288;2023-04-29T09:32:40;101672.06;;;16.72;100.00
42587;BME280;28216;53.362;-6.288;2023-04-29T09:35:25;101666.78;;;16.64;100.00
42587;BME280;28216;53.362;-6.288;2023-04-29T09:38:07;101675.22;;;16.90;100.00
42587;BME280;28216;53.362;-6.288;2023-04-29T09:40:33;101675.31;;;16.97;100.00
42587;BME280;28216;53.362;-6.288;2023-04-29T09:43:00;101671.59;;;17.06;100.00
42587;BME280;28216;53.362;-6.288;2023-04-29T09:45:34;101664.72;;;17.20;100.00
42587;BME280;28216;53.362;-6.288;2023-04-29T09:48:02;101665.06;;;17.17;100.00
42587;BME280;28216;53.362;-6.288;2023-04-29T09:50:28;101668.28;;;17.41;100.00
42587;BME280;28216;53.362;-6.288;2023-04-29T09:52:53;101661.44;;;17.47;100.00
42587;BME280;28216;53.362;-6.288;2023-04-29T09:55:19;101661.44;;;17.62;100.00
42587;BME280;28216;53.362;-6.288;2023-04-29T09:57:45;101671.53;;;17.66;100.00
42587;BME280;28216;53.362;-6.288;2023-04-29T10:00:13;101667.19;;;17.65;100.00
42587;BME280;28216;53.362;-6.288;2023-04-29T10:02:45;101669.97;;;17.72;100.00
42587;BME280;28216;53.362;-6.288;2023-04-29T10:05:12;101665.91;;;17.61;100.00
42587;BME280;28216;53.362;-6.288;2023-04-29T10:07:39;101664.28;;;17.75;100.00
42587;BME280;28216;53.362;-6.288;2023-04-29T10:10:06;101664.56;;;17.80;100.00
42587;BME280;28216;53.362;-6.288;2023-04-29T10:12:34;101662.47;;;17.90;100.00
42587;BME280;28216;53.362;-6.288;2023-04-29T10:15:51;101658.34;;;18.02;100.00
42587;BME280;28216;53.362;-6.288;2023-04-29T10:17:54;101666.50;;;18.01;100.00
42587;BME280;28216;53.362;-6.288;2023-04-29T10:20:23;101661.66;;;17.75;100.00
42587;BME280;28216;53.362;-6.288;2023-04-29T10:22:53;101667.94;;;17.59;100.00
42587;BME280;28216;53.362;-6.288;2023-04-29T10:25:21;101667.38;;;17.49;100.00
42587;BME280;28216;53.362;-6.288;2023-04-29T10:27:48;101668.47;;;17.25;100.00
42587;BME280;28216;53.362;-6.288;2023-04-29T10:30:18;101671.56;;;17.29;100.00
42587;BME280;28216;53.362;-6.288;2023-04-29T10:32:45;101674.34;;;17.50;100.00
42587;BME280;28216;53.362;-6.288;2023-04-29T10:35:15;101678.63;;;17.36;100.00
42587;BME280;28216;53.362;-6.288;2023-04-29T10:37:44;101676.28;;;17.71;100.00
42587;BME280;28216;53.362;-6.288;2023-04-29T10:40:23;101677.66;;;17.96;100.00
42587;BME280;28216;53.362;-6.288;2023-04-29T10:42:53;101678.09;;;18.00;100.00
42587;BME280;28216;53.362;-6.288;2023-04-29T10:45:25;101677.56;;;18.04;100.00
42587;BME280;28216;53.362;-6.288;2023-04-29T10:50:35;101681.31;;;17.81;100.00
42587;BME280;28216;53.362;-6.288;2023-04-29T10:53:04;101681.41;;;17.72;100.00
42587;BME280;28216;53.362;-6.288;2023-04-29T10:55:30;101696.34;;;17.21;100.00
42587;BME280;28216;53.362;-6.288;2023-04-29T10:57:56;101689.50;;;17.41;100.00
42587;BME280;28216;53.362;-6.288;2023-04-29T11:00:25;101691.56;;;17.17;100.00
42587;BME280;28216;53.362;-6.288;2023-04-29T11:02:55;101684.75;;;17.37;100.00
42587;BME280;28216;53.362;-6.288;2023-04-29T11:05:30;101674.88;;;17.60;100.00
42587;BME280;28216;53.362;-6.288;2023-04-29T11:08:22;101674.28;;;17.73;100.00
42587;BME280;28216;53.362;-6.288;2023-04-29T11:10:52;101684.56;;;17.01;100.00
42587;BME280;28216;53.362;-6.288;2023-04-29T11:13:25;101682.06;;;17.22;100.00
42587;BME280;28216;53.362;-6.288;2023-04-29T11:15:51;101687.75;;;16.96;100.00
42587;BME280;28216;53.362;-6.288;2023-04-29T11:18:17;101687.84;;;17.03;100.00
42587;BME280;28216;53.362;-6.288;2023-04-29T11:23:33;101691.50;;;17.02;100.00
42587;BME280;28216;53.362;-6.288;2023-04-29T11:26:00;101700.47;;;17.01;100.00
42587;BME280;28216;53.362;-6.288;2023-04-29T11:28:30;101695.97;;;17.01;100.00
42587;BME280;28216;53.362;-6.288;2023-04-29T11:30:56;101699.88;;;16.91;100.00
42587;BME280;28216;53.362;-6.288;2023-04-29T11:33:23;101705.41;;;16.81;100.00
42587;BME280;28216;53.362;-6.288;2023-04-29T11:35:51;101694.53;;;16.76;100.00
42587;BME280;28216;53.362;-6.288;2023-04-29T11:38:17;101685.22;;;16.80;100.00
42587;BME280;28216;53.362;-6.288;2023-04-29T11:40:48;101686.53;;;16.84;100.00
42587;BME280;28216;53.362;-6.288;2023-04-29T11:43:18;101685.16;;;16.88;100.00
42587;BME280;28216;53.362;-6.288;2023-04-29T11:45:47;101682.13;;;16.76;100.00
42587;BME280;28216;53.362;-6.288;2023-04-29T11:48:20;101690.94;;;16.92;100.00
42587;BME280;28216;53.362;-6.288;2023-04-29T11:50:46;101686.09;;;16.95;100.00
42587;BME280;28216;53.362;-6.288;2023-04-29T11:53:18;101671.25;;;17.09;100.00
42587;BME280;28216;53.362;-6.288;2023-04-29T11:55:45;101672.69;;;17.34;100.00
42587;BME280;28216;53.362;-6.288;2023-04-29T11:58:11;101683.66;;;17.46;100.00
42587;BME280;28216;53.362;-6.288;2023-04-29T12:00:37;101659.88;;;17.53;100.00
42587;BME280;28216;53.362;-6.288;2023-04-29T12:03:19;101658.44;;;17.79;100.00
42587;BME280;28216;53.362;-6.288;2023-04-29T12:05:52;101662.94;;;17.94;100.00
42587;BME280;28216;53.362;-6.288;2023-04-29T12:08:25;101659.63;;;17.92;100.00
42587;BME280;28216;53.362;-6.288;2023-04-29T12:10:53;101652.06;;;17.89;100.00
42587;BME280;28216;53.362;-6.288;2023-04-29T12:13:19;101658.78;;;17.62;100.00
42587;BME280;28216;53.362;-6.288;2023-04-29T12:15:45;101656.97;;;17.62;100.00
42587;BME280;28216;53.362;-6.288;2023-04-29T12:18:16;101651.84;;;17.75;100.00
42587;BME280;28216;53.362;-6.288;2023-04-29T12:20:42;101651.00;;;17.60;100.00
42587;BME280;28216;53.362;-6.288;2023-04-29T12:25:48;101651.00;;;17.60;100.00
42587;BME280;28216;53.362;-6.288;2023-04-29T12:28:14;101652.47;;;17.63;100.00
42587;BME280;28216;53.362;-6.288;2023-04-29T12:30:40;101650.47;;;17.65;100.00
42587;BME280;28216;53.362;-6.288;2023-04-29T12:33:08;101654.75;;;17.66;100.00
42587;BME280;28216;53.362;-6.288;2023-04-29T12:35:34;101643.25;;;17.73;100.00
42587;BME280;28216;53.362;-6.288;2023-04-29T12:38:00;101639.34;;;17.84;100.00
42587;BME280;28216;53.362;-6.288;2023-04-29T12:40:29;101647.56;;;17.89;100.00
42587;BME280;28216;53.362;-6.288;2023-04-29T12:42:56;101639.69;;;17.81;100.00
42587;BME280;28216;53.362;-6.288;2023-04-29T12:45:29;101637.41;;;17.78;100.00
42587;BME280;28216;53.362;-6.288;2023-04-29T12:47:56;101636.50;;;17.86;100.00
42587;BME280;28216;53.362;-6.288;2023-04-29T12:50:30;101633.38;;;17.82;100.00
42587;BME280;28216;53.362;-6.288;2023-04-29T12:52:57;101636.66;;;17.99;100.00
42587;BME280;28216;53.362;-6.288;2023-04-29T12:55:23;101631.38;;;17.84;100.00
42587;BME280;28216;53.362;-6.288;2023-04-29T12:57:48;101634.69;;;17.86;100.00
42587;BME280;28216;53.362;-6.288;2023-04-29T13:00:16;101634.66;;;17.71;100.00
42587;BME280;28216;53.362;-6.288;2023-04-29T13:02:44;101639.97;;;17.71;100.00
42587;BME280;28216;53.362;-6.288;2023-04-29T13:05:10;101635.50;;;17.72;100.00
42587;BME280;28216;53.362;-6.288;2023-04-29T13:07:37;101638.41;;;17.77;100.00
42587;BME280;28216;53.362;-6.288;2023-04-29T13:10:10;101632.09;;;17.78;100.00
42587;BME280;28216;53.362;-6.288;2023-04-29T13:12:56;101640.16;;;17.85;100.00